Paris-Orly Airport

LFPO · Département de l'Essonne, Région Île-de-France, France

METAR anciennes LFPO · Aéroport de Paris–Orly

Tu vois ci-dessous les METAR des derniers jours. Sélectionne une année pour parcourir les METAR plus anciens, à partir de l'année 2007.

5 décembre 2022

Temps Code Temps Temp. Vue Base cloud Vent METAR/SPECI
18:30
M
3 °C 6 km 1.500 ft Var Var 2 kt SPECI LFPO 051730Z VRB02KT 6000 BKN015 03/01 Q1021 TEMPO 4000 BR
19:00
M
3 °C 6 km 1.500 ft 020° 020° 1 kt METAR LFPO 051800Z 02001KT 6000 BKN015 03/01 Q1021 TEMPO 4000 BR
18:30
M
3 °C 6 km 1.500 ft Var Var 2 kt METAR LFPO 051730Z VRB02KT 6000 BKN015 03/01 Q1021 TEMPO 4000 BR
18:00
M
3 °C 6 km 1.300 ft Var Var 2 kt METAR LFPO 051700Z VRB02KT 6000 BKN013 03/01 Q1021 TEMPO 4000 BR
17:30
M
3 °C 7 km 1.400 ft Var Var 3 kt METAR LFPO 051630Z VRB03KT 7000 BKN014 03/01 Q1021 TEMPO 4000 BR
17:00
M
3 °C 7 km 1.400 ft 320° 320° 4 kt METAR LFPO 051600Z 32004KT 7000 BKN014 03/01 Q1020 TEMPO 4000 BR
16:30
M
3 °C 7 km 1.400 ft 330° 330° 3 kt METAR LFPO 051530Z 33003KT 7000 BKN014 03/01 Q1020 TEMPO 4000 BR
16:00
M
3 °C 7 km 1.300 ft 310° 310° 2 kt METAR LFPO 051500Z 31002KT 7000 BKN013 03/01 Q1020 TEMPO 4000 BR
15:30
M
3 °C 6 km 1.400 ft 320° 320° 3 kt METAR LFPO 051430Z 32003KT 6000 SCT010 BKN014 03/01 Q1020 TEMPO 4000 BR
15:00
M
3 °C 6 km 1.000 ft 290° 290° 3 kt METAR LFPO 051400Z 29003KT 250V330 6000 BKN010 BKN015 03/01 Q1020 TEMPO 4000 BR
14:30
I
3 °C 7 km 900 ft 300° 300° 4 kt METAR LFPO 051330Z 30004KT 7000 BKN009 BKN016 03/01 Q1020 TEMPO 4000 BR
14:00
I
3 °C 6 km 600 ft 330° 330° 3 kt METAR LFPO 051300Z 33003KT 290V350 6000 -DZ BKN006 03/01 Q1020 TEMPO 4000 BR
13:30
M
2 °C 6 km 1.600 ft 330° 330° 3 kt METAR LFPO 051230Z 33003KT 6000 SCT008 BKN016 02/01 Q1020 TEMPO 4000 BR
13:00
I
2 °C 6 km 800 ft 350° 350° 3 kt METAR LFPO 051200Z AUTO 35003KT 310V070 6000 BKN008 BKN015 OVC020 02/01 Q1020 TEMPO 4000 BR
12:30
M
2 °C 5 km 1.400 ft 330° 330° 3 kt METAR LFPO 051130Z AUTO 33003KT 300V360 5000 BR SCT007 BKN014 OVC019 02/01 Q1020 BECMG BKN006
12:00
I
2 °C 4 km 600 ft Var Var 3 kt METAR LFPO 051100Z VRB03KT 4000 BR OVC006 02/01 Q1020 NOSIG
11:30
L
2 °C 4 km 400 ft 310° 310° 3 kt METAR LFPO 051030Z 31003KT 4000 BR OVC004 02/01 Q1020 NOSIG
11:00
I
2 °C 4 km 700 ft Var Var 3 kt METAR LFPO 051000Z VRB03KT 4000 -RASN BR BKN007 OVC034 02/01 Q1020 NOSIG
10:30
I
2 °C 5 km 600 ft 340° 340° 4 kt METAR LFPO 050930Z 34004KT 310V020 5000 -DZ BKN006 OVC032 02/01 Q1020 NOSIG
10:00
I
2 °C 4,5 km 700 ft 310° 310° 4 kt METAR LFPO 050900Z 31004KT 4500 -DZ BKN007 OVC026 02/01 Q1019 NOSIG
09:30
I
2 °C 3 km 800 ft 300° 300° 4 kt METAR LFPO 050830Z 30004KT 280V360 3000 -DZ OVC008 02/01 Q1019 NOSIG
09:00
I
2 °C 3 km 700 ft 290° 290° 4 kt METAR LFPO 050800Z 29004KT 3000 -DZ BKN007 BKN020 02/01 Q1019 NOSIG
08:30
I
2 °C 3 km 700 ft 320° 320° 4 kt METAR LFPO 050730Z 32004KT 3000 -RADZ BKN007 BKN024 02/01 Q1019 NOSIG
08:00
I
2 °C 4,5 km 600 ft 320° 320° 4 kt METAR LFPO 050700Z 32004KT 300V010 4500 -RADZ BKN006 BKN010 02/01 Q1018 NOSIG
07:30
I
2 °C 4,5 km 600 ft 320° 320° 5 kt METAR LFPO 050630Z 32005KT 4500 -RADZ BR BKN006 BKN010 02/01 Q1018 NOSIG
07:00
I
2 °C 4,5 km 600 ft 330° 330° 4 kt METAR LFPO 050600Z 33004KT 300V030 4500 -RADZ BR BKN006 BKN010 02/01 Q1018 NOSIG
06:30
I
2 °C 3,5 km 600 ft 330° 330° 5 kt METAR LFPO 050530Z 33005KT 3500 -RA BR BKN006 BKN011 02/01 Q1018 NOSIG
06:00
I
2 °C 4 km 600 ft 320° 320° 5 kt METAR LFPO 050500Z 32005KT 4000 -RA BR BKN006 BKN011 02/01 Q1017 NOSIG
05:30
I
2 °C 5 km 800 ft 350° 350° 4 kt METAR LFPO 050430Z 35004KT 5000 -RASN BR BKN008 BKN015 02/01 Q1017 TEMPO 3500 -RASN
05:00
I
2 °C 5 km 700 ft 360° 360° 4 kt METAR LFPO 050400Z 36004KT 330V030 5000 -RA BR BKN007 BKN013 02/01 Q1017 TEMPO 3500 -RASN
04:34
I
2 °C 5 km 700 ft 340° 340° 5 kt METAR LFPO 050334Z 34005KT 5000 -RA BR BKN007 BKN013 02/01 Q1017 TEMPO 3500 -RASN
04:00
I
2 °C 5 km 700 ft 360° 360° 5 kt METAR LFPO 050300Z 36005KT 5000 -RADZ BR BKN007 BKN015 02/01 Q1016 TEMPO 3500 -RASN BKN008
03:30
M
2 °C 5 km 1.000 ft 020° 020° 3 kt METAR LFPO 050230Z 02003KT 5000 -RA BR BKN010 BKN016 02/01 Q1017 TEMPO 3500 -RASN BKN008
03:00
I
2 °C 5 km 900 ft 070° 070° 3 kt METAR LFPO 050200Z AUTO 07003KT 5000 -SNRA BR OVC009 02/01 Q1017 TEMPO BKN004
02:30
I
2 °C 6 km 900 ft 050° 050° 4 kt METAR LFPO 050130Z AUTO 05004KT 6000 -RA OVC009 02/01 Q1016 TEMPO 3500 -RADZ BKN004
02:00
I
2 °C 6 km 800 ft 010° 010° 5 kt METAR LFPO 050100Z AUTO 01005KT 6000 -RADZ OVC008/// ///TCU 02/01 Q1016 TEMPO 3500 -RADZ BKN004
01:30
I
3 °C 6 km 800 ft 030° 030° 5 kt METAR LFPO 050030Z AUTO 03005KT 6000 -RA OVC008 03/02 Q1016 TEMPO 3500 -RADZ BKN004
01:00
I
3 °C 6 km 800 ft 030° 030° 6 kt METAR LFPO 050000Z AUTO 03006KT 6000 -RA BKN008 BKN012 OVC029 03/02 Q1016 TEMPO 2500 -RADZ BKN004
00:30
I
3 °C 5 km 800 ft 030° 030° 5 kt METAR LFPO 042330Z 03005KT 5000 -RA BR BKN008 BKN017 03/02 Q1015 NOSIG
00:00
I
3 °C 5 km 800 ft 040° 040° 7 kt METAR LFPO 042300Z 04007KT 5000 -RA BKN008 BKN019 03/02 Q1015 NOSIG

4 décembre 2022

Temps Code Temps Temp. Vue Base cloud Vent METAR/SPECI
23:38
I
3 °C 6 km 800 ft 040° 040° 6 kt METAR LFPO 042238Z 04006KT 6000 -RA BKN008 BKN019 03/02 Q1015 NOSIG
23:00
I
3 °C 7 km 900 ft 040° 040° 6 kt METAR LFPO 042200Z 04006KT 7000 -RA BKN009 BKN019 03/02 Q1015 NOSIG
22:30
M
3 °C 7 km 1.900 ft 040° 040° 7 kt METAR LFPO 042130Z 04007KT 7000 -RA SCT010 BKN019 03/01 Q1015 BECMG BKN009
22:00
M
3 °C 7 km 1.500 ft 030° 030° 8 kt METAR LFPO 042100Z 03008KT 7000 -RA BKN015 03/01 Q1015 NOSIG
21:30
M
3 °C 8 km 1.400 ft 030° 030° 7 kt METAR LFPO 042030Z 03007KT 8000 -RA OVC014 03/01 Q1015 NOSIG
21:00
M
4 °C 9 km 1.300 ft 040° 040° 7 kt METAR LFPO 042000Z 04007KT 9000 OVC013 04/01 Q1015 NOSIG
20:30
M
4 °C 9 km 1.300 ft 040° 040° 8 kt METAR LFPO 041930Z 04008KT 9000 OVC013 04/01 Q1014 NOSIG
20:00
M
4 °C 9 km 1.400 ft 040° 040° 9 kt METAR LFPO 041900Z 04009KT 9000 OVC014 04/01 Q1014 NOSIG
19:30
M
4 °C 9 km 1.400 ft 040° 040° 9 kt METAR LFPO 041830Z 04009KT 9000 OVC014 04/01 Q1013 NOSIG
19:00
M
4 °C 9 km 1.400 ft 050° 050° 8 kt METAR LFPO 041800Z 05008KT 9000 OVC014 04/01 Q1013 NOSIG
18:30
M
4 °C 9 km 1.400 ft 040° 040° 9 kt METAR LFPO 041730Z 04009KT 9000 OVC014 04/01 Q1013 NOSIG
18:00
M
4 °C 9 km 1.500 ft 040° 040° 6 kt METAR LFPO 041700Z 04006KT 9000 OVC015 04/01 Q1013 NOSIG
17:30
M
4 °C 9 km 1.600 ft 050° 050° 8 kt METAR LFPO 041630Z 05008KT 9000 OVC016 04/01 Q1013 NOSIG
17:00
M
4 °C 9 km 1.600 ft 040° 040° 7 kt METAR LFPO 041600Z 04007KT 9000 BKN016 04/01 Q1013 NOSIG
16:30
M
4 °C 9 km 1.500 ft 050° 050° 6 kt METAR LFPO 041530Z 05006KT 020V080 9000 BKN015 04/01 Q1012 NOSIG
16:00
M
4 °C 8 km 1.400 ft 050° 050° 8 kt METAR LFPO 041500Z 05008KT 8000 BKN014 04/02 Q1012 NOSIG
15:30
M
4 °C 8 km 1.200 ft 050° 050° 9 kt METAR LFPO 041430Z 05009KT 8000 BKN012 04/02 Q1012 NOSIG
15:00
M
4 °C 8 km 1.000 ft 050° 050° 9 kt METAR LFPO 041400Z 05009KT 8000 BKN010 04/02 Q1012 NOSIG
14:30
I
4 °C 8 km 900 ft 040° 040° 8 kt METAR LFPO 041330Z 04008KT 010V070 8000 BKN009 04/02 Q1012 TEMPO BKN012
14:00
I
4 °C 7 km 900 ft 050° 050° 9 kt METAR LFPO 041300Z 05009KT 7000 BKN009 04/02 Q1012 BECMG BKN011
13:30
I
3 °C 6 km 800 ft 060° 060° 8 kt METAR LFPO 041230Z 06008KT 6000 BKN008 BKN011 03/02 Q1012 BECMG BKN011
13:00
I
3 °C 6 km 700 ft 060° 060° 9 kt METAR LFPO 041200Z 06009KT 6000 BKN007 03/02 Q1012 BECMG BKN011
12:30
I
4 °C 3,5 km 1.000 ft 070° 070° 10 kt METAR LFPO 041130Z 07010KT 3500 -DZ BKN010 04/02 Q1012 TEMPO BKN009
12:00
M
4 °C 7 km 1.200 ft 070° 070° 10 kt METAR LFPO 041100Z AUTO 07010KT 7000 OVC012 04/01 Q1012 TEMPO BKN016
11:30
M
4 °C 9 km 1.300 ft 060° 060° 9 kt METAR LFPO 041030Z 06009KT 9000 OVC013 04/01 Q1012 NOSIG
11:00
M
3 °C 8 km 1.300 ft 050° 050° 9 kt METAR LFPO 041000Z 05009KT 8000 OVC013 03/01 Q1012 NOSIG
10:30
M
3 °C 8 km 1.300 ft 060° 060° 9 kt METAR LFPO 040930Z 06009KT 8000 -RA OVC013 03/01 Q1012 NOSIG
10:00
M
3 °C 8 km 1.400 ft 060° 060° 9 kt METAR LFPO 040900Z 06009KT 8000 -RA OVC014 03/01 Q1012 NOSIG
09:30
M
3 °C 8 km 1.400 ft 050° 050° 8 kt METAR LFPO 040830Z 05008KT 8000 -RA OVC014 03/01 Q1012 NOSIG
09:00
M
3 °C 8 km 1.400 ft 060° 060° 8 kt METAR LFPO 040800Z 06008KT 8000 -RA OVC014 03/01 Q1012 NOSIG
08:30
M
3 °C 8 km 1.200 ft 070° 070° 8 kt METAR LFPO 040730Z 07008KT 8000 OVC012 03/00 Q1012 NOSIG
08:00
M
3 °C 9 km 1.200 ft 080° 080° 8 kt METAR LFPO 040700Z 08008KT 9000 OVC012 03/00 Q1012 NOSIG
07:30
M
3 °C 10 km+ 1.200 ft 060° 060° 9 kt METAR LFPO 040630Z 06009KT 9999 OVC012 03/00 Q1012 NOSIG
07:00
M
3 °C 10 km+ 1.300 ft 080° 080° 9 kt METAR LFPO 040600Z 08009KT 9999 OVC013 03/00 Q1012 NOSIG
06:30
M
3 °C 10 km+ 1.300 ft 070° 070° 8 kt METAR LFPO 040530Z 07008KT 9999 OVC013 03/M00 Q1012 NOSIG
06:00
M
3 °C 10 km+ 1.300 ft 060° 060° 10 kt METAR LFPO 040500Z 06010KT 9999 OVC013 03/M00 Q1012 NOSIG
05:30
M
2 °C 10 km+ 1.300 ft 060° 060° 11 kt METAR LFPO 040430Z 06011KT 9999 OVC013 02/M00 Q1012 NOSIG
05:00
M
2 °C 10 km+ 1.200 ft 060° 060° 11 kt METAR LFPO 040400Z 06011KT 9999 OVC012 02/00 Q1012 NOSIG
04:30
M
2 °C 10 km+ 1.200 ft 070° 070° 9 kt METAR LFPO 040330Z 07009KT 9999 OVC012 02/00 Q1012 NOSIG
04:00
M
2 °C 10 km+ 1.200 ft 070° 070° 8 kt METAR LFPO 040300Z 07008KT 9999 OVC012 02/00 Q1013 NOSIG
03:30
M
2 °C 10 km+ 1.200 ft 060° 060° 9 kt METAR LFPO 040230Z 06009KT 9999 OVC012 02/00 Q1013 NOSIG
03:00
M
2 °C 10 km+ 1.200 ft 060° 060° 9 kt METAR LFPO 040200Z AUTO 06009KT 9999 OVC012 02/00 Q1013 NOSIG
02:30
M
2 °C 10 km+ 1.200 ft 060° 060° 10 kt METAR LFPO 040130Z AUTO 06010KT 9999 OVC012 02/00 Q1013 NOSIG
02:00
M
2 °C 10 km+ 1.200 ft 070° 070° 11 kt METAR LFPO 040100Z AUTO 07011KT 9999 OVC012 02/00 Q1013 NOSIG
01:30
M
2 °C 10 km+ 1.200 ft 060° 060° 10 kt METAR LFPO 040030Z AUTO 06010KT 9999 OVC012 02/M00 Q1013 NOSIG
01:00
M
2 °C 10 km+ 1.200 ft 060° 060° 9 kt METAR LFPO 040000Z AUTO 06009KT 9999 OVC012 02/00 Q1013 NOSIG
00:30
M
2 °C 10 km+ 1.200 ft 050° 050° 10 kt METAR LFPO 032330Z AUTO 05010KT 9999 OVC012 02/M00 Q1013 NOSIG
00:00
M
3 °C 10 km+ 1.200 ft 050° 050° 10 kt METAR LFPO 032300Z 05010KT 9999 OVC012 03/00 Q1013 NOSIG

3 décembre 2022

Temps Code Temps Temp. Vue Base cloud Vent METAR/SPECI
23:30
M
3 °C 10 km+ 1.200 ft 060° 060° 10 kt METAR LFPO 032230Z 06010KT 9999 OVC012 03/00 Q1013 NOSIG
23:00
M
3 °C 10 km+ 1.300 ft 070° 070° 10 kt METAR LFPO 032200Z 07010KT 9999 OVC013 03/00 Q1014 NOSIG
22:30
M
3 °C 10 km+ 1.300 ft 050° 050° 11 kt METAR LFPO 032130Z 05011KT 9999 OVC013 03/00 Q1014 NOSIG
22:00
M
3 °C 10 km+ 1.200 ft 040° 040° 11 kt METAR LFPO 032100Z 04011KT 9999 OVC012 03/00 Q1014 NOSIG
21:30
M
3 °C 10 km+ 1.200 ft 040° 040° 10 kt METAR LFPO 032030Z 04010KT 9999 OVC012 03/00 Q1014 NOSIG
21:00
M
3 °C 10 km+ 1.200 ft 040° 040° 10 kt METAR LFPO 032000Z 04010KT 9999 OVC012 03/00 Q1014 NOSIG
20:30
M
3 °C 10 km+ 1.300 ft 050° 050° 8 kt METAR LFPO 031930Z 05008KT 9999 OVC013 03/00 Q1014 NOSIG
20:00
M
3 °C 10 km+ 1.300 ft 050° 050° 12 kt METAR LFPO 031900Z 05012KT 9999 OVC013 03/00 Q1014 NOSIG
19:30
M
3 °C 10 km+ 1.300 ft 050° 050° 11 kt METAR LFPO 031830Z 05011KT 9999 OVC013 03/00 Q1014 NOSIG
19:00
M
3 °C 10 km+ 1.300 ft 050° 050° 11 kt METAR LFPO 031800Z 05011KT 9999 OVC013 03/01 Q1014 NOSIG
18:30
M
3 °C 10 km+ 1.300 ft 040° 040° 11 kt METAR LFPO 031730Z 04011KT 9999 OVC013 03/00 Q1014 NOSIG
18:00
M
3 °C 10 km+ 1.300 ft 050° 050° 10 kt METAR LFPO 031700Z 05010KT 9999 OVC013 03/01 Q1014 NOSIG
17:30
M
3 °C 10 km+ 1.400 ft 050° 050° 12 kt METAR LFPO 031630Z 05012KT 9999 OVC014 03/00 Q1014 NOSIG
17:00
M
3 °C 10 km+ 1.400 ft 040° 040° 10 kt METAR LFPO 031600Z 04010KT 9999 OVC014 03/00 Q1014 NOSIG
16:30
M
3 °C 10 km+ 1.400 ft 040° 040° 11 kt METAR LFPO 031530Z 04011KT 9999 OVC014 03/01 Q1014 NOSIG
16:00
M
4 °C 10 km+ 1.500 ft 060° 060° 10 kt METAR LFPO 031500Z 06010KT 9999 OVC015 04/01 Q1015 NOSIG
15:30
M
4 °C 10 km+ 1.500 ft 050° 050° 8 kt METAR LFPO 031430Z 05008KT 9999 OVC015 04/01 Q1014 NOSIG
15:00
M
4 °C 10 km+ 1.500 ft 060° 060° 10 kt METAR LFPO 031400Z 06010KT 9999 OVC015 04/01 Q1014 NOSIG
14:30
M
4 °C 10 km+ 1.500 ft 060° 060° 11 kt METAR LFPO 031330Z 06011KT 9999 OVC015 04/01 Q1015 NOSIG
14:00
M
4 °C 10 km+ 1.500 ft 060° 060° 10 kt METAR LFPO 031300Z 06010KT 9999 OVC015 04/01 Q1015 NOSIG
13:30
M
4 °C 10 km+ 1.500 ft 060° 060° 10 kt METAR LFPO 031230Z 06010KT 9999 BKN015 04/01 Q1015 NOSIG
13:00
M
4 °C 10 km+ 1.500 ft 050° 050° 10 kt METAR LFPO 031200Z 05010KT 9999 BKN015 04/01 Q1015 NOSIG
12:30
M
4 °C 10 km+ 1.500 ft 060° 060° 11 kt METAR LFPO 031130Z 06011KT 9999 BKN015 04/01 Q1016 NOSIG
12:00
M
4 °C 10 km+ 1.400 ft 070° 070° 11 kt METAR LFPO 031100Z 07011KT 9999 BKN014 04/01 Q1016 NOSIG
11:30
M
4 °C 10 km+ 1.400 ft 060° 060° 10 kt METAR LFPO 031030Z 06010KT 9999 BKN014 04/01 Q1016 NOSIG
11:00
M
3 °C 10 km+ 1.400 ft 050° 050° 9 kt METAR LFPO 031000Z 05009KT 9999 BKN014 03/01 Q1016 NOSIG

Nous et des tiers suivons ton comportement Internet sur notre site Web à l'aide de cookies. Si tu continues, nous supposons que tu es d'accord avec notre Politique en matière de cookies.